sensor_id;sensor_type;location;lat;lon;timestamp;pressure;altitude;pressure_sealevel;temperature;humidity
14293;BME280;62290;59.420;17.842;2023-04-23T00:01:28;100526.41;;;22.10;25.84
14293;BME280;62290;59.420;17.842;2023-04-23T00:04:01;100526.53;;;22.09;26.13
14293;BME280;62290;59.420;17.842;2023-04-23T00:06:34;100521.16;;;22.09;25.93
14293;BME280;62290;59.420;17.842;2023-04-23T00:09:03;100515.09;;;22.07;25.86
14293;BME280;62290;59.420;17.842;2023-04-23T00:11:33;100517.75;;;22.07;25.96
14293;BME280;62290;59.420;17.842;2023-04-23T00:14:02;100513.38;;;22.06;26.29
14293;BME280;62290;59.420;17.842;2023-04-23T00:16:30;100511.53;;;22.06;25.96
14293;BME280;62290;59.420;17.842;2023-04-23T00:18:58;100505.31;;;22.06;26.32
14293;BME280;62290;59.420;17.842;2023-04-23T00:21:26;100504.59;;;22.04;26.14
14293;BME280;62290;59.420;17.842;2023-04-23T00:23:56;100505.47;;;22.04;26.02
14293;BME280;62290;59.420;17.842;2023-04-23T00:26:24;100493.25;;;22.00;26.14
14293;BME280;62290;59.420;17.842;2023-04-23T00:28:52;100494.88;;;22.03;26.14
14293;BME280;62290;59.420;17.842;2023-04-23T00:31:20;100474.56;;;21.89;26.38
14293;BME280;62290;59.420;17.842;2023-04-23T00:33:49;100482.22;;;21.94;26.14
14293;BME280;62290;59.420;17.842;2023-04-23T00:36:17;100495.94;;;22.00;26.13
14293;BME280;62290;59.420;17.842;2023-04-23T00:38:45;100493.41;;;21.99;26.39
14293;BME280;62290;59.420;17.842;2023-04-23T00:41:15;100488.19;;;21.97;26.20
14293;BME280;62290;59.420;17.842;2023-04-23T00:43:43;100482.81;;;21.97;26.12
14293;BME280;62290;59.420;17.842;2023-04-23T00:46:11;100493.53;;;21.97;26.45
14293;BME280;62290;59.420;17.842;2023-04-23T00:48:40;100490.00;;;21.97;26.27
14293;BME280;62290;59.420;17.842;2023-04-23T00:51:10;100453.25;;;21.77;26.41
14293;BME280;62290;59.420;17.842;2023-04-23T00:53:38;100483.91;;;21.95;26.31
14293;BME280;62290;59.420;17.842;2023-04-23T00:56:06;100472.84;;;21.88;26.62
14293;BME280;62290;59.420;17.842;2023-04-23T00:58:36;100485.75;;;21.94;26.28
14293;BME280;62290;59.420;17.842;2023-04-23T01:01:05;100474.56;;;21.89;26.32
14293;BME280;62290;59.420;17.842;2023-04-23T01:03:34;100481.50;;;21.92;26.30
14293;BME280;62290;59.420;17.842;2023-04-23T01:06:05;100480.63;;;21.91;26.33
14293;BME280;62290;59.420;17.842;2023-04-23T01:08:33;100485.13;;;21.91;26.38
14293;BME280;62290;59.420;17.842;2023-04-23T01:11:02;100486.13;;;21.90;26.52
14293;BME280;62290;59.420;17.842;2023-04-23T01:13:30;100479.06;;;21.89;26.35
14293;BME280;62290;59.420;17.842;2023-04-23T01:16:00;100482.59;;;21.89;26.23
14293;BME280;62290;59.420;17.842;2023-04-23T01:18:28;100478.19;;;21.88;26.52
14293;BME280;62290;59.420;17.842;2023-04-23T01:20:56;100478.34;;;21.87;26.57
14293;BME280;62290;59.420;17.842;2023-04-23T01:23:26;100475.66;;;21.87;26.56
14293;BME280;62290;59.420;17.842;2023-04-23T01:25:54;100474.81;;;21.86;26.57
14293;BME280;62290;59.420;17.842;2023-04-23T01:28:23;100477.56;;;21.85;26.40
14293;BME280;62290;59.420;17.842;2023-04-23T01:30:51;100478.41;;;21.85;26.64
14293;BME280;62290;59.420;17.842;2023-04-23T01:33:22;100469.50;;;21.85;26.29
14293;BME280;62290;59.420;17.842;2023-04-23T01:35:50;100466.97;;;21.83;26.45
14293;BME280;62290;59.420;17.842;2023-04-23T01:38:18;100467.94;;;21.82;26.74
14293;BME280;62290;59.420;17.842;2023-04-23T01:40:50;100466.13;;;21.83;26.66
14293;BME280;62290;59.420;17.842;2023-04-23T01:43:20;100461.75;;;21.82;26.71
14293;BME280;62290;59.420;17.842;2023-04-23T01:45:49;100454.66;;;21.81;26.55
14293;BME280;62290;59.420;17.842;2023-04-23T01:48:18;100461.84;;;21.80;26.63
14293;BME280;62290;59.420;17.842;2023-04-23T01:50:47;100456.50;;;21.80;26.67
14293;BME280;62290;59.420;17.842;2023-04-23T01:53:15;100461.00;;;21.80;26.71
14293;BME280;62290;59.420;17.842;2023-04-23T01:55:45;100456.75;;;21.77;26.33
14293;BME280;62290;59.420;17.842;2023-04-23T01:58:15;100495.88;;;21.80;26.86
14293;BME280;62290;59.420;17.842;2023-04-23T02:00:43;100480.06;;;21.77;26.90
14293;BME280;62290;59.420;17.842;2023-04-23T02:03:11;100503.34;;;21.76;26.98
14293;BME280;62290;59.420;17.842;2023-04-23T02:05:40;100494.44;;;21.76;26.63
14293;BME280;62290;59.420;17.842;2023-04-23T02:08:09;100495.41;;;21.75;26.94
14293;BME280;62290;59.420;17.842;2023-04-23T02:10:37;100525.91;;;21.74;27.10
14293;BME280;62290;59.420;17.842;2023-04-23T02:13:05;100486.63;;;21.73;26.78
14293;BME280;62290;59.420;17.842;2023-04-23T02:15:35;100527.72;;;21.73;26.80
14293;BME280;62290;59.420;17.842;2023-04-23T02:18:04;100507.25;;;21.72;27.19
14293;BME280;62290;59.420;17.842;2023-04-23T02:20:32;100521.66;;;21.71;26.90
14293;BME280;62290;59.420;17.842;2023-04-23T02:23:01;100514.94;;;21.66;27.26
14293;BME280;62290;59.420;17.842;2023-04-23T02:25:30;100498.63;;;21.69;26.78
14293;BME280;62290;59.420;17.842;2023-04-23T02:27:59;100512.13;;;21.67;26.90
14293;BME280;62290;59.420;17.842;2023-04-23T02:30:31;100473.53;;;21.59;27.13
14293;BME280;62290;59.420;17.842;2023-04-23T02:33:00;100483.75;;;21.65;27.01
14293;BME280;62290;59.420;17.842;2023-04-23T02:35:29;100514.94;;;21.66;27.08
14293;BME280;62290;59.420;17.842;2023-04-23T02:37:57;100482.69;;;21.56;26.84
14293;BME280;62290;59.420;17.842;2023-04-23T02:40:25;100476.56;;;21.65;26.88
14293;BME280;62290;59.420;17.842;2023-04-23T02:42:53;100501.66;;;21.64;27.02
14293;BME280;62290;59.420;17.842;2023-04-23T02:45:21;100498.97;;;21.64;27.31
14293;BME280;62290;59.420;17.842;2023-04-23T02:47:49;100506.19;;;21.64;27.20
14293;BME280;62290;59.420;17.842;2023-04-23T02:50:20;100498.97;;;21.64;27.26
14293;BME280;62290;59.420;17.842;2023-04-23T02:52:48;100479.38;;;21.64;26.85
14293;BME280;62290;59.420;17.842;2023-04-23T02:55:16;100480.34;;;21.63;27.15
14293;BME280;62290;59.420;17.842;2023-04-23T02:57:45;100462.69;;;21.60;27.32
14293;BME280;62290;59.420;17.842;2023-04-23T03:00:13;100483.03;;;21.63;27.11
14293;BME280;62290;59.420;17.842;2023-04-23T03:02:43;100418.56;;;21.21;26.83
14293;BME280;62290;59.420;17.842;2023-04-23T03:05:11;100466.94;;;21.63;27.16
14293;BME280;62290;59.420;17.842;2023-04-23T03:07:41;100480.34;;;21.63;27.28
14293;BME280;62290;59.420;17.842;2023-04-23T03:10:09;100474.97;;;21.63;27.29
14293;BME280;62290;59.420;17.842;2023-04-23T03:12:37;100474.97;;;21.63;27.32
14293;BME280;62290;59.420;17.842;2023-04-23T03:15:06;100467.91;;;21.62;26.92
14293;BME280;62290;59.420;17.842;2023-04-23T03:17:36;100460.00;;;21.60;27.09
14293;BME280;62290;59.420;17.842;2023-04-23T03:20:07;100469.84;;;21.60;27.17
14293;BME280;62290;59.420;17.842;2023-04-23T03:22:37;100458.28;;;21.59;27.02
14293;BME280;62290;59.420;17.842;2023-04-23T03:25:07;100458.81;;;21.53;27.02
14293;BME280;62290;59.420;17.842;2023-04-23T03:27:37;100465.50;;;21.59;27.09
14293;BME280;62290;59.420;17.842;2023-04-23T03:30:07;100468.41;;;21.56;27.09
14293;BME280;62290;59.420;17.842;2023-04-23T03:32:35;100481.69;;;21.57;27.02
14293;BME280;62290;59.420;17.842;2023-04-23T03:35:04;100473.66;;;21.57;27.11
14293;BME280;62290;59.420;17.842;2023-04-23T03:37:32;100470.97;;;21.57;27.12
14293;BME280;62290;59.420;17.842;2023-04-23T03:40:02;100468.53;;;21.54;27.25
14293;BME280;62290;59.420;17.842;2023-04-23T03:42:38;100472.78;;;21.57;27.52
14293;BME280;62290;59.420;17.842;2023-04-23T03:45:08;100471.97;;;21.56;27.04
14293;BME280;62290;59.420;17.842;2023-04-23T03:47:36;100468.41;;;21.56;27.07
14293;BME280;62290;59.420;17.842;2023-04-23T03:50:06;100467.56;;;21.55;27.28
14293;BME280;62290;59.420;17.842;2023-04-23T03:52:35;100474.75;;;21.54;27.47
14293;BME280;62290;59.420;17.842;2023-04-23T03:55:03;100468.53;;;21.54;27.44
14293;BME280;62290;59.420;17.842;2023-04-23T03:57:39;100470.09;;;21.57;27.29
14293;BME280;62290;59.420;17.842;2023-04-23T04:00:18;100476.47;;;21.56;27.46
14293;BME280;62290;59.420;17.842;2023-04-23T04:02:46;100481.69;;;21.57;27.40
14293;BME280;62290;59.420;17.842;2023-04-23T04:05:14;100479.00;;;21.57;27.47
14293;BME280;62290;59.420;17.842;2023-04-23T04:07:44;100475.38;;;21.58;27.58
14293;BME280;62290;59.420;17.842;2023-04-23T04:10:12;100481.59;;;21.59;27.12
14293;BME280;62290;59.420;17.842;2023-04-23T04:12:43;100482.41;;;21.59;27.24
14293;BME280;62290;59.420;17.842;2023-04-23T04:15:14;100481.31;;;21.62;27.36
14293;BME280;62290;59.420;17.842;2023-04-23T04:17:43;100479.38;;;21.64;27.27
14293;BME280;62290;59.420;17.842;2023-04-23T04:20:12;100485.31;;;21.67;27.38
14293;BME280;62290;59.420;17.842;2023-04-23T04:22:40;100477.16;;;21.69;27.26
14293;BME280;62290;59.420;17.842;2023-04-23T04:25:08;100477.47;;;21.75;27.09
14293;BME280;62290;59.420;17.842;2023-04-23T04:27:38;100477.09;;;21.80;27.16
14293;BME280;62290;59.420;17.842;2023-04-23T04:30:09;100465.91;;;21.86;27.31
14293;BME280;62290;59.420;17.842;2023-04-23T04:32:37;100455.63;;;21.91;26.94
14293;BME280;62290;59.420;17.842;2023-04-23T04:35:07;100453.41;;;21.96;27.32
14293;BME280;62290;59.420;17.842;2023-04-23T04:37:35;100454.00;;;21.99;26.86
14293;BME280;62290;59.420;17.842;2023-04-23T04:40:05;100452.66;;;22.05;27.08
14293;BME280;62290;59.420;17.842;2023-04-23T04:42:33;100458.47;;;22.10;26.89
14293;BME280;62290;59.420;17.842;2023-04-23T04:45:02;100448.31;;;22.13;26.93
14293;BME280;62290;59.420;17.842;2023-04-23T04:47:33;100455.84;;;22.20;26.92
14293;BME280;62290;59.420;17.842;2023-04-23T04:50:01;100455.44;;;22.24;27.06
14293;BME280;62290;59.420;17.842;2023-04-23T04:52:29;100456.19;;;22.26;26.98
14293;BME280;62290;59.420;17.842;2023-04-23T04:54:57;100449.56;;;22.30;26.91
14293;BME280;62290;59.420;17.842;2023-04-23T04:57:25;100452.00;;;22.33;26.87
14293;BME280;62290;59.420;17.842;2023-04-23T04:59:53;100447.06;;;22.38;27.02
14293;BME280;62290;59.420;17.842;2023-04-23T05:02:21;100447.66;;;22.42;26.75
14293;BME280;62290;59.420;17.842;2023-04-23T05:04:51;100449.22;;;22.44;26.92
14293;BME280;62290;59.420;17.842;2023-04-23T05:07:19;100446.41;;;22.46;26.83
14293;BME280;62290;59.420;17.842;2023-04-23T05:09:47;100448.97;;;22.47;26.73
14293;BME280;62290;59.420;17.842;2023-04-23T05:12:15;100449.78;;;22.48;26.57
14293;BME280;62290;59.420;17.842;2023-04-23T05:14:43;100454.34;;;22.47;27.01
14293;BME280;62290;59.420;17.842;2023-04-23T05:17:12;100459.72;;;22.47;26.83
14293;BME280;62290;59.420;17.842;2023-04-23T05:19:40;100452.63;;;22.46;26.48
14293;BME280;62290;59.420;17.842;2023-04-23T05:22:09;100448.97;;;22.47;26.57
14293;BME280;62290;59.420;17.842;2023-04-23T05:24:37;100456.28;;;22.45;26.70
14293;BME280;62290;59.420;17.842;2023-04-23T05:27:06;100449.22;;;22.44;26.89
14293;BME280;62290;59.420;17.842;2023-04-23T05:29:34;100450.06;;;22.45;26.75
14293;BME280;62290;59.420;17.842;2023-04-23T05:32:02;100441.19;;;22.44;26.79
14293;BME280;62290;59.420;17.842;2023-04-23T05:34:30;100438.50;;;22.44;26.67
14293;BME280;62290;59.420;17.842;2023-04-23T05:36:58;100435.06;;;22.42;26.99
14293;BME280;62290;59.420;17.842;2023-04-23T05:39:28;100439.47;;;22.43;26.67
14293;BME280;62290;59.420;17.842;2023-04-23T05:41:56;100435.06;;;22.42;27.01
14293;BME280;62290;59.420;17.842;2023-04-23T05:44:24;100433.25;;;22.43;26.86
14293;BME280;62290;59.420;17.842;2023-04-23T05:46:52;100440.31;;;22.44;27.00
14293;BME280;62290;59.420;17.842;2023-04-23T05:49:21;100435.06;;;22.42;27.04
14293;BME280;62290;59.420;17.842;2023-04-23T05:51:49;100436.06;;;22.41;26.98
14293;BME280;62290;59.420;17.842;2023-04-23T05:54:18;100434.25;;;22.42;26.78
14293;BME280;62290;59.420;17.842;2023-04-23T05:56:47;100407.88;;;22.26;27.02
14293;BME280;62290;59.420;17.842;2023-04-23T05:59:15;100436.06;;;22.41;27.12
14293;BME280;62290;59.420;17.842;2023-04-23T06:01:43;100430.81;;;22.40;27.12
14293;BME280;62290;59.420;17.842;2023-04-23T06:04:12;100420.63;;;22.34;27.16
14293;BME280;62290;59.420;17.842;2023-04-23T06:06:41;100426.44;;;22.39;27.21
14293;BME280;62290;59.420;17.842;2023-04-23T06:09:09;100431.66;;;22.40;27.15
14293;BME280;62290;59.420;17.842;2023-04-23T06:11:37;100423.63;;;22.40;27.02
14293;BME280;62290;59.420;17.842;2023-04-23T06:14:07;100428.00;;;22.41;27.15
14293;BME280;62290;59.420;17.842;2023-04-23T06:16:35;100431.66;;;22.40;27.24
14293;BME280;62290;59.420;17.842;2023-04-23T06:19:03;100434.34;;;22.40;27.20
14293;BME280;62290;59.420;17.842;2023-04-23T06:21:32;100428.88;;;22.42;27.23
14293;BME280;62290;59.420;17.842;2023-04-23T06:24:00;100439.59;;;22.42;27.26
14293;BME280;62290;59.420;17.842;2023-04-23T06:26:28;100427.88;;;22.43;27.17
14293;BME280;62290;59.420;17.842;2023-04-23T06:29:03;100425.06;;;22.44;27.21
14293;BME280;62290;59.420;17.842;2023-04-23T06:31:37;100435.41;;;22.49;27.07
14293;BME280;62290;59.420;17.842;2023-04-23T06:34:07;100428.06;;;22.51;27.40
14293;BME280;62290;59.420;17.842;2023-04-23T06:36:35;100427.66;;;22.55;27.22
14293;BME280;62290;59.420;17.842;2023-04-23T06:39:03;100427.38;;;22.58;27.37
14293;BME280;62290;59.420;17.842;2023-04-23T06:41:31;100420.88;;;22.61;27.36
14293;BME280;62290;59.420;17.842;2023-04-23T06:44:10;100422.50;;;22.63;27.21
14293;BME280;62290;59.420;17.842;2023-04-23T06:46:47;100424.06;;;22.66;27.21
14293;BME280;62290;59.420;17.842;2023-04-23T06:49:15;100423.09;;;22.67;27.07
14293;BME280;62290;59.420;17.842;2023-04-23T06:51:43;100420.41;;;22.67;27.03
14293;BME280;62290;59.420;17.842;2023-04-23T06:54:11;100429.31;;;22.67;27.22
14293;BME280;62290;59.420;17.842;2023-04-23T06:56:39;100411.75;;;22.63;27.13
14293;BME280;62290;59.420;17.842;2023-04-23T06:59:08;100416.00;;;22.66;27.08
14293;BME280;62290;59.420;17.842;2023-04-23T07:01:43;100420.53;;;22.65;27.38
14293;BME280;62290;59.420;17.842;2023-04-23T07:04:13;100423.34;;;22.64;27.14
14293;BME280;62290;59.420;17.842;2023-04-23T07:06:41;100417.13;;;22.63;27.19
14293;BME280;62290;59.420;17.842;2023-04-23T07:09:09;100417.13;;;22.63;27.12
14293;BME280;62290;59.420;17.842;2023-04-23T07:11:37;100427.03;;;22.63;27.22
14293;BME280;62290;59.420;17.842;2023-04-23T07:14:05;100413.09;;;22.58;27.12
14293;BME280;62290;59.420;17.842;2023-04-23T07:16:34;100409.28;;;22.60;26.93
14293;BME280;62290;59.420;17.842;2023-04-23T07:19:02;100404.69;;;22.62;27.27
14293;BME280;62290;59.420;17.842;2023-04-23T07:21:32;100399.31;;;22.62;27.43
14293;BME280;62290;59.420;17.842;2023-04-23T07:24:00;100403.56;;;22.65;27.07
14293;BME280;62290;59.420;17.842;2023-04-23T07:26:33;100403.31;;;22.68;27.15
14293;BME280;62290;59.420;17.842;2023-04-23T07:29:02;100398.75;;;22.68;27.32
14293;BME280;62290;59.420;17.842;2023-04-23T07:31:30;100397.94;;;22.68;27.50
14293;BME280;62290;59.420;17.842;2023-04-23T07:33:58;100387.03;;;22.69;27.28
14293;BME280;62290;59.420;17.842;2023-04-23T07:36:27;100394.94;;;22.71;27.39
14293;BME280;62290;59.420;17.842;2023-04-23T07:38:56;100397.53;;;22.72;27.27
14293;BME280;62290;59.420;17.842;2023-04-23T07:41:24;100391.03;;;22.75;27.25
14293;BME280;62290;59.420;17.842;2023-04-23T07:43:52;100386.34;;;22.77;26.97
14293;BME280;62290;59.420;17.842;2023-04-23T07:46:20;100380.88;;;22.79;27.38
14293;BME280;62290;59.420;17.842;2023-04-23T07:48:48;100380.56;;;22.82;27.02
14293;BME280;62290;59.420;17.842;2023-04-23T07:51:17;100372.50;;;22.82;26.96
14293;BME280;62290;59.420;17.842;2023-04-23T07:53:45;100375.63;;;22.87;27.17
14293;BME280;62290;59.420;17.842;2023-04-23T07:56:16;100340.09;;;22.73;27.55
14293;BME280;62290;59.420;17.842;2023-04-23T07:58:44;100369.72;;;22.93;26.99
14293;BME280;62290;59.420;17.842;2023-04-23T08:01:12;100363.22;;;22.95;27.26
14293;BME280;62290;59.420;17.842;2023-04-23T08:03:40;100353.91;;;22.99;26.94
14293;BME280;62290;59.420;17.842;2023-04-23T08:06:09;100354.72;;;23.00;27.05
14293;BME280;62290;59.420;17.842;2023-04-23T08:08:37;100345.16;;;23.07;27.08
14293;BME280;62290;59.420;17.842;2023-04-23T08:11:06;100340.47;;;23.09;27.04
14293;BME280;62290;59.420;17.842;2023-04-23T08:13:35;100337.34;;;23.13;26.97
14293;BME280;62290;59.420;17.842;2023-04-23T08:16:04;100330.00;;;23.15;26.84
14293;BME280;62290;59.420;17.842;2023-04-23T08:18:32;100322.50;;;23.19;26.93
14293;BME280;62290;59.420;17.842;2023-04-23T08:21:00;100321.53;;;23.20;26.88
14293;BME280;62290;59.420;17.842;2023-04-23T08:23:29;100318.84;;;23.20;26.79
14293;BME280;62290;59.420;17.842;2023-04-23T08:25:57;100303.25;;;23.23;26.55
14293;BME280;62290;59.420;17.842;2023-04-23T08:28:25;100286.44;;;23.12;26.57
14293;BME280;62290;59.420;17.842;2023-04-23T08:30:55;100299.03;;;23.21;26.62
14293;BME280;62290;59.420;17.842;2023-04-23T08:33:23;100297.78;;;23.25;26.62
14293;BME280;62290;59.420;17.842;2023-04-23T08:35:51;100300.19;;;23.28;26.50
14293;BME280;62290;59.420;17.842;2023-04-23T08:38:19;100303.84;;;23.27;26.43
14293;BME280;62290;59.420;17.842;2023-04-23T08:40:48;100305.41;;;23.29;26.45
14293;BME280;62290;59.420;17.842;2023-04-23T08:43:18;100304.53;;;23.29;26.55
14293;BME280;62290;59.420;17.842;2023-04-23T08:45:47;100296.34;;;23.30;26.38
14293;BME280;62290;59.420;17.842;2023-04-23T08:48:17;100304.09;;;23.33;26.45
14293;BME280;62290;59.420;17.842;2023-04-23T08:50:46;100312.06;;;23.35;26.44
14293;BME280;62290;59.420;17.842;2023-04-23T08:53:17;100311.03;;;23.36;26.40
14293;BME280;62290;59.420;17.842;2023-04-23T08:55:48;100307.28;;;23.39;26.39
14293;BME280;62290;59.420;17.842;2023-04-23T08:58:17;100309.81;;;23.40;26.23
14293;BME280;62290;59.420;17.842;2023-04-23T09:00:46;100304.44;;;23.40;26.19
14293;BME280;62290;59.420;17.842;2023-04-23T09:03:16;100307.84;;;23.42;26.18
14293;BME280;62290;59.420;17.842;2023-04-23T09:05:45;100295.41;;;23.41;26.22
14293;BME280;62290;59.420;17.842;2023-04-23T09:08:13;100296.22;;;23.42;26.09
14293;BME280;62290;59.420;17.842;2023-04-23T09:10:42;100293.41;;;23.43;26.27
14293;BME280;62290;59.420;17.842;2023-04-23T09:13:12;100264.50;;;23.26;26.10
14293;BME280;62290;59.420;17.842;2023-04-23T09:15:41;100284.31;;;23.44;26.00
14293;BME280;62290;59.420;17.842;2023-04-23T09:18:10;100281.50;;;23.46;26.08
14293;BME280;62290;59.420;17.842;2023-04-23T09:20:39;100272.44;;;23.37;26.24
14293;BME280;62290;59.420;17.842;2023-04-23T09:23:07;100283.19;;;23.47;26.03
14293;BME280;62290;59.420;17.842;2023-04-23T09:25:35;100286.72;;;23.47;25.91
14293;BME280;62290;59.420;17.842;2023-04-23T09:28:06;100285.75;;;23.48;25.97
14293;BME280;62290;59.420;17.842;2023-04-23T09:30:38;100290.00;;;23.51;26.67
14293;BME280;62290;59.420;17.842;2023-04-23T09:33:10;100260.28;;;23.33;27.39
14293;BME280;62290;59.420;17.842;2023-04-23T09:35:40;100280.50;;;23.56;28.97
14293;BME280;62290;59.420;17.842;2023-04-23T09:38:08;100261.41;;;23.50;29.71
14293;BME280;62290;59.420;17.842;2023-04-23T09:40:36;100279.09;;;23.62;30.87
14293;BME280;62290;59.420;17.842;2023-04-23T09:43:05;100234.94;;;23.45;31.40
14293;BME280;62290;59.420;17.842;2023-04-23T09:45:46;100262.22;;;23.69;32.22
14293;BME280;62290;59.420;17.842;2023-04-23T09:48:14;100259.53;;;23.69;32.28
14293;BME280;62290;59.420;17.842;2023-04-23T09:50:44;100266.47;;;23.72;32.23
14293;BME280;62290;59.420;17.842;2023-04-23T09:53:13;100260.78;;;23.75;32.02
14293;BME280;62290;59.420;17.842;2023-04-23T09:55:43;100263.31;;;23.76;31.69
14293;BME280;62290;59.420;17.842;2023-04-23T09:58:13;100261.34;;;23.78;31.31
14293;BME280;62290;59.420;17.842;2023-04-23T10:00:41;100253.13;;;23.80;31.21
14293;BME280;62290;59.420;17.842;2023-04-23T10:03:10;100247.59;;;23.81;31.18
14293;BME280;62290;59.420;17.842;2023-04-23T10:05:39;100244.75;;;23.83;30.47
14293;BME280;62290;59.420;17.842;2023-04-23T10:08:13;100237.53;;;23.83;29.88
14293;BME280;62290;59.420;17.842;2023-04-23T10:10:43;100232.88;;;23.85;29.86
14293;BME280;62290;59.420;17.842;2023-04-23T10:13:32;100227.47;;;23.85;29.32
14293;BME280;62290;59.420;17.842;2023-04-23T10:16:03;100206.25;;;23.82;29.07
14293;BME280;62290;59.420;17.842;2023-04-23T10:18:49;100207.63;;;23.86;28.79
14293;BME280;62290;59.420;17.842;2023-04-23T10:21:18;100160.44;;;23.55;28.81
14293;BME280;62290;59.420;17.842;2023-04-23T10:23:49;100182.31;;;23.79;28.08
14293;BME280;62290;59.420;17.842;2023-04-23T10:26:19;100189.81;;;23.85;27.83
14293;BME280;62290;59.420;17.842;2023-04-23T10:28:53;100186.78;;;23.88;27.62
14293;BME280;62290;59.420;17.842;2023-04-23T10:31:22;100185.97;;;23.88;27.52
14293;BME280;62290;59.420;17.842;2023-04-23T10:33:51;100189.66;;;23.87;27.22
14293;BME280;62290;59.420;17.842;2023-04-23T10:36:25;100151.19;;;23.67;27.18
14293;BME280;62290;59.420;17.842;2023-04-23T10:38:56;100180.59;;;23.88;26.86
14293;BME280;62290;59.420;17.842;2023-04-23T10:41:32;100167.44;;;23.85;26.82
14293;BME280;62290;59.420;17.842;2023-04-23T10:44:02;100164.56;;;23.86;26.74
14293;BME280;62290;59.420;17.842;2023-04-23T10:46:32;100161.88;;;23.86;26.43
14293;BME280;62290;59.420;17.842;2023-04-23T10:49:06;100159.06;;;23.88;26.66
14293;BME280;62290;59.420;17.842;2023-04-23T10:51:34;100157.19;;;23.88;26.52
14293;BME280;62290;59.420;17.842;2023-04-23T10:54:07;100154.50;;;23.88;26.12
14293;BME280;62290;59.420;17.842;2023-04-23T10:56:37;100101.00;;;23.58;26.27
14293;BME280;62290;59.420;17.842;2023-04-23T10:59:06;100149.13;;;23.88;26.49
14293;BME280;62290;59.420;17.842;2023-04-23T11:01:35;100152.66;;;23.89;26.54
14293;BME280;62290;59.420;17.842;2023-04-23T11:04:19;100144.59;;;23.89;26.46
14293;BME280;62290;59.420;17.842;2023-04-23T11:06:52;100134.69;;;23.89;26.43
14293;BME280;62290;59.420;17.842;2023-04-23T11:09:38;100134.69;;;23.89;26.42
14293;BME280;62290;59.420;17.842;2023-04-23T11:12:09;100140.75;;;23.91;26.40
14293;BME280;62290;59.420;17.842;2023-04-23T11:14:44;100133.69;;;23.90;26.25
14293;BME280;62290;59.420;17.842;2023-04-23T11:17:13;100126.91;;;23.86;26.15
14293;BME280;62290;59.420;17.842;2023-04-23T11:20:07;100123.63;;;23.92;25.97
14293;BME280;62290;59.420;17.842;2023-04-23T11:22:37;100115.16;;;23.87;26.01
14293;BME280;62290;59.420;17.842;2023-04-23T11:25:09;100117.22;;;23.93;25.84
14293;BME280;62290;59.420;17.842;2023-04-23T11:27:39;100117.22;;;23.93;25.98
14293;BME280;62290;59.420;17.842;2023-04-23T11:30:11;100118.06;;;23.94;25.79
14293;BME280;62290;59.420;17.842;2023-04-23T11:32:40;100119.91;;;23.93;25.84
14293;BME280;62290;59.420;17.842;2023-04-23T11:35:08;100109.16;;;23.93;26.00
14293;BME280;62290;59.420;17.842;2023-04-23T11:37:40;100084.59;;;23.79;25.74
14293;BME280;62290;59.420;17.842;2023-04-23T11:40:11;100087.84;;;23.82;25.57
14293;BME280;62290;59.420;17.842;2023-04-23T11:42:45;100059.31;;;23.72;25.80
14293;BME280;62290;59.420;17.842;2023-04-23T11:47:48;100093.72;;;23.95;25.57
14293;BME280;62290;59.420;17.842;2023-04-23T11:52:45;100076.56;;;23.96;25.47
14293;BME280;62290;59.420;17.842;2023-04-23T11:55:15;100052.31;;;23.79;25.58
14293;BME280;62290;59.420;17.842;2023-04-23T11:57:44;100071.03;;;23.98;25.51
14293;BME280;62290;59.420;17.842;2023-04-23T12:00:15;100063.97;;;23.97;25.72
14293;BME280;62290;59.420;17.842;2023-04-23T12:02:51;100063.78;;;23.98;25.40
14293;BME280;62290;59.420;17.842;2023-04-23T12:05:21;100062.97;;;23.98;25.44
14293;BME280;62290;59.420;17.842;2023-04-23T12:07:50;100043.47;;;23.86;25.53
14293;BME280;62290;59.420;17.842;2023-04-23T12:10:20;100060.97;;;24.00;25.54
14293;BME280;62290;59.420;17.842;2023-04-23T12:12:50;100049.66;;;23.96;25.79
14293;BME280;62290;59.420;17.842;2023-04-23T12:15:18;100065.38;;;24.01;25.70
14293;BME280;62290;59.420;17.842;2023-04-23T12:17:47;100047.34;;;24.02;25.73
14293;BME280;62290;59.420;17.842;2023-04-23T12:20:20;100039.19;;;23.93;25.60
14293;BME280;62290;59.420;17.842;2023-04-23T12:22:48;100041.97;;;24.02;25.78
14293;BME280;62290;59.420;17.842;2023-04-23T12:25:22;100039.97;;;24.04;25.62
14293;BME280;62290;59.420;17.842;2023-04-23T12:27:50;100042.81;;;24.02;25.86
14293;BME280;62290;59.420;17.842;2023-04-23T12:30:18;100039.13;;;24.03;25.79
14293;BME280;62290;59.420;17.842;2023-04-23T12:32:46;100039.97;;;24.04;25.82
14293;BME280;62290;59.420;17.842;2023-04-23T12:35:14;100035.41;;;24.04;25.90
14293;BME280;62290;59.420;17.842;2023-04-23T12:37:42;100026.81;;;24.01;25.90
14293;BME280;62290;59.420;17.842;2023-04-23T12:40:11;100030.88;;;24.05;25.64
14293;BME280;62290;59.420;17.842;2023-04-23T12:42:40;100036.28;;;24.05;25.69
14293;BME280;62290;59.420;17.842;2023-04-23T12:45:09;100027.34;;;24.04;25.65
14293;BME280;62290;59.420;17.842;2023-04-23T12:47:37;100020.13;;;24.05;25.89
14293;BME280;62290;59.420;17.842;2023-04-23T12:50:06;100023.50;;;24.07;25.92
14293;BME280;62290;59.420;17.842;2023-04-23T12:52:34;100020.97;;;24.05;25.91
14293;BME280;62290;59.420;17.842;2023-04-23T12:55:04;100014.75;;;24.05;25.85
14293;BME280;62290;59.420;17.842;2023-04-23T12:57:32;100012.91;;;24.05;25.76